Time;durP1;ratioP1;P1;durP2;ratioP2;P2;SDS_P1;SDS_P2;PMS_P1;PMS_P2;Temp;Humidity;BMP_temperature;BMP_pressure;BME280_temperature;BME280_humidity;BME280_pressure;Samples;Min_cycle;Max_cycle;Signal;HPM_P1;HPM_P2
2022/06/19 00:00:22;;;;;;;;;;;;;;;22.46;67.12;99832.75;6251254;22;1231;-91
2022/06/19 00:02:48;;;;;;;;;;;;;;;22.67;65.68;99824.69;6251003;22;1273;-90
2022/06/19 00:05:14;;;;;;;;;;;;;;;22.58;66.72;99822.19;6251085;22;1274;-91
2022/06/19 00:07:40;;;;;;;;;;;;;;;22.64;65.41;99806.72;6250755;22;1880;-92
2022/06/19 00:10:05;;;;;;;;;;;;;;;22.64;66.10;99803.91;6278250;22;972;-91
2022/06/19 00:12:30;;;;;;;;;;;;;;;22.65;66.33;99801.94;6251024;22;1278;-91
2022/06/19 16:06:56;;;;;;;;;;;;;;;26.75;35.79;99909.19;6205598;22;1522951;-90
2022/06/19 16:09:23;;;;;;;;;;;;;;;26.95;36.24;99917.22;6190440;23;1252;-91
2022/06/19 16:11:53;;;;;;;;;;;;;;;27.22;35.69;99926.75;6188750;23;1912;-91
2022/06/19 16:14:42;;;;;;;;;;;;;;;27.08;35.88;99935.22;6190210;23;1165;-93
2022/06/19 16:17:16;;;;;;;;;;;;;;;27.09;36.06;99931.22;6186503;23;1306;-92
2022/06/19 16:19:41;;;;;;;;;;;;;;;26.82;36.64;99930.03;6217008;23;1015;-92
2022/06/19 16:22:15;;;;;;;;;;;;;;;26.64;38.24;99927.25;6189731;23;1315;-91
2022/06/19 16:24:49;;;;;;;;;;;;;;;27.11;36.49;99935.22;6190268;23;1319;-92
2022/06/19 16:27:16;;;;;;;;;;;;;;;26.82;36.79;99938.47;6190597;23;1262;-92
2022/06/19 16:29:42;;;;;;;;;;;;;;;26.59;37.13;99950.94;6190836;23;1341;-92
2022/06/19 16:32:18;;;;;;;;;;;;;;;26.85;37.43;99934.88;6190472;23;1876;-92
2022/06/19 16:46:29;;;;;;;;;;;;;;;27.05;37.02;99939.66;6216753;23;1212;-93
2022/06/19 16:48:54;;;;;;;;;;;;;;;26.73;37.08;99938.88;6217071;23;901;-92
2022/06/19 16:51:21;;;;;;;;;;;;;;;27.05;37.49;99948.06;6190219;23;1897;-91
2022/06/19 16:53:47;;;;;;;;;;;;;;;26.97;36.51;99943.69;6190695;23;1266;-91
2022/06/19 16:56:21;;;;;;;;;;;;;;;27.05;37.28;99941.69;6190069;23;1294;-92
2022/06/19 16:58:47;;;;;;;;;;;;;;;26.42;38.24;99937.72;6190444;23;1260;-92
2022/06/19 17:01:35;;;;;;;;;;;;;;;26.37;37.88;99938.91;6189400;23;1188;-93
2022/06/19 17:04:06;;;;;;;;;;;;;;;26.53;37.68;99946.94;6167865;23;1305;-93
2022/06/19 17:06:32;;;;;;;;;;;;;;;26.67;37.17;99949.72;6184481;23;1363;-92
2022/06/19 17:09:06;;;;;;;;;;;;;;;27.32;36.28;99937.16;6185414;23;1183;-92
2022/06/19 17:11:31;;;;;;;;;;;;;;;27.72;35.34;99929.38;6185029;23;1908;-91
2022/06/19 17:14:02;;;;;;;;;;;;;;;27.67;35.25;99929.78;6183722;23;1172;-91
2022/06/19 17:16:29;;;;;;;;;;;;;;;26.87;35.52;99933.25;6184591;23;1439;-91
2022/06/19 17:18:55;;;;;;;;;;;;;;;27.10;36.31;99936.44;6186633;23;1215;-92
2022/06/19 17:21:22;;;;;;;;;;;;;;;27.38;34.82;99945.97;6186523;23;1038;-92
2022/06/19 17:24:06;;;;;;;;;;;;;;;27.17;35.01;99960.91;6186385;23;1259;-93
2022/06/19 17:26:32;;;;;;;;;;;;;;;27.11;35.10;99968.16;6186122;23;1285;-91
2022/06/19 17:28:57;;;;;;;;;;;;;;;26.99;34.25;99962.94;6186443;23;1172;-91
2022/06/19 17:31:25;;;;;;;;;;;;;;;27.04;34.13;99960.53;6186111;23;1901;-92
2022/06/19 17:33:51;;;;;;;;;;;;;;;27.21;34.42;99955.28;6186244;23;1342;-91
2022/06/19 17:36:17;;;;;;;;;;;;;;;26.79;34.28;99956.16;6186163;23;1337;-91
2022/06/19 17:38:45;;;;;;;;;;;;;;;27.06;33.75;99954.50;6187412;23;912;-92
2022/06/19 17:41:12;;;;;;;;;;;;;;;26.01;36.21;99959.69;6186148;23;1196;-91
2022/06/19 17:43:38;;;;;;;;;;;;;;;25.40;36.64;99944.66;6185935;23;1284;-93
2022/06/19 17:46:10;;;;;;;;;;;;;;;25.06;38.41;99960.91;6186181;23;1330;-91
2022/06/19 17:48:38;;;;;;;;;;;;;;;24.58;38.46;99962.94;6185910;23;1220;-92
2022/06/19 17:51:27;;;;;;;;;;;;;;;24.08;40.20;99940.06;6186232;23;1937;-92
2022/06/19 17:53:54;;;;;;;;;;;;;;;23.73;40.53;99940.50;6186191;23;1297;-92
2022/06/19 17:56:31;;;;;;;;;;;;;;;23.66;40.69;99929.25;6187100;23;1271;-93
2022/06/19 17:58:59;;;;;;;;;;;;;;;23.74;40.59;99936.53;6187917;23;1378;-92
2022/06/19 18:01:26;;;;;;;;;;;;;;;24.10;40.71;99926.53;6187169;23;1085;-93
2022/06/19 18:04:12;;;;;;;;;;;;;;;24.45;39.75;99931.66;6187245;23;1275;-93
2022/06/19 18:06:37;;;;;;;;;;;;;;;24.47;40.41;99937.66;6185840;23;1350;-92
2022/06/19 18:09:03;;;;;;;;;;;;;;;24.45;40.32;99923.25;6186989;23;1248;-92
2022/06/19 18:11:31;;;;;;;;;;;;;;;24.11;40.92;99914.16;6186803;23;1892;-92
2022/06/19 18:14:03;;;;;;;;;;;;;;;24.07;41.14;99890.94;6187249;23;1345;-91
2022/06/19 18:19:12;;;;;;;;;;;;;;;24.00;41.24;99893.66;6190813;23;634;-93
2022/06/19 18:21:44;;;;;;;;;;;;;;;23.50;41.36;99895.16;6190982;23;1180;-94
2022/06/19 18:24:11;;;;;;;;;;;;;;;23.59;40.95;99898.47;6188094;23;1281;-93
2022/06/19 18:26:38;;;;;;;;;;;;;;;23.84;41.01;99912.69;6186502;23;1264;-93
2022/06/19 18:29:13;;;;;;;;;;;;;;;23.77;40.41;99930.19;6186452;23;1241;-93
2022/06/19 18:31:38;;;;;;;;;;;;;;;23.48;41.33;99927.44;6186421;23;1930;-92
2022/06/19 18:34:08;;;;;;;;;;;;;;;23.38;40.95;99937.31;6184359;23;1333;-92
2022/06/19 18:36:34;;;;;;;;;;;;;;;22.94;42.36;99943.50;6186861;23;1331;-92
2022/06/19 18:38:59;;;;;;;;;;;;;;;22.83;42.58;99956.47;6186949;23;1340;-92
2022/06/19 18:41:24;;;;;;;;;;;;;;;22.78;43.17;99970.78;6186570;23;1319;-92
2022/06/19 18:43:56;;;;;;;;;;;;;;;22.67;43.80;99971.75;6196697;23;1048;-95
2022/06/19 18:46:21;;;;;;;;;;;;;;;22.65;43.89;99972.91;6195158;23;1308;-94
2022/06/19 18:48:47;;;;;;;;;;;;;;;22.20;44.88;99961.81;6197205;23;1322;-94
2022/06/19 18:51:15;;;;;;;;;;;;;;;22.04;44.47;99981.41;6197518;23;1869;-94
2022/06/19 18:53:42;;;;;;;;;;;;;;;21.92;44.89;99986.34;6196417;23;1457;-95
2022/06/19 18:56:11;;;;;;;;;;;;;;;22.44;44.69;99986.53;6193805;23;1276;-93
2022/06/19 18:58:37;;;;;;;;;;;;;;;22.46;44.38;99989.72;6192106;23;1310;-93
2022/06/19 19:01:02;;;;;;;;;;;;;;;22.11;44.70;99994.69;6197689;23;1265;-94
2022/06/19 19:03:28;;;;;;;;;;;;;;;22.19;45.28;99988.88;6197239;23;1152;-93
2022/06/19 19:05:54;;;;;;;;;;;;;;;22.22;44.95;100001.25;6189226;23;1140;-94
2022/06/19 19:08:48;;;;;;;;;;;;;;;22.23;45.96;99998.09;6193071;23;1238;-93
2022/06/19 19:11:25;;;;;;;;;;;;;;;21.99;46.02;100003.22;6193403;23;1889;-93
